createdAt,value
2022-10-05T00:01:45.406Z,10.90
2022-10-05T00:04:33.635Z,11.10
2022-10-05T00:07:15.537Z,11.30
2022-10-05T00:09:47.929Z,11.40
2022-10-05T00:12:18.259Z,11.30
2022-10-05T00:14:52.475Z,11.20
2022-10-05T00:17:27.000Z,11.20
2022-10-05T00:20:02.449Z,11.30
2022-10-05T00:22:35.775Z,11.40
2022-10-05T00:25:38.415Z,11.40
2022-10-05T00:31:25.166Z,11.50
2022-10-05T00:34:03.425Z,11.40
2022-10-05T00:36:39.785Z,11.40
2022-10-05T00:39:15.845Z,11.40
2022-10-05T00:42:02.962Z,11.40
2022-10-05T00:45:04.873Z,11.40
2022-10-05T00:47:52.342Z,11.20
2022-10-05T00:51:06.012Z,11.00
2022-10-05T00:54:05.256Z,10.90
2022-10-05T00:57:18.830Z,11.00
2022-10-05T01:00:08.739Z,10.90
2022-10-05T01:03:00.298Z,10.90
2022-10-05T01:05:53.489Z,10.90
2022-10-05T01:08:49.980Z,10.80
2022-10-05T01:11:33.478Z,10.70
2022-10-05T01:14:23.651Z,10.50
2022-10-05T01:17:20.813Z,10.50
2022-10-05T01:20:32.134Z,10.40
2022-10-05T01:23:39.897Z,10.50
2022-10-05T01:26:40.421Z,10.70
2022-10-05T01:29:21.610Z,10.90
2022-10-05T01:32:03.427Z,10.90
2022-10-05T01:34:43.448Z,11.00
2022-10-05T01:37:32.204Z,11.00
2022-10-05T01:40:12.029Z,11.00
2022-10-05T01:43:09.141Z,10.80
2022-10-05T01:45:58.121Z,10.50
2022-10-05T01:48:42.064Z,10.30
2022-10-05T01:51:31.021Z,10.10
2022-10-05T01:54:14.006Z,10.00
2022-10-05T01:56:53.215Z,10.10
2022-10-05T01:59:36.578Z,10.30
2022-10-05T02:02:13.339Z,10.40
2022-10-05T02:05:04.923Z,10.50
2022-10-05T02:07:43.807Z,10.50
2022-10-05T02:10:25.320Z,10.50
2022-10-05T02:13:09.006Z,10.40
2022-10-05T02:15:43.658Z,10.30
2022-10-05T02:18:23.501Z,10.40
2022-10-05T02:20:56.617Z,10.40
2022-10-05T02:23:32.569Z,10.40
2022-10-05T02:26:10.216Z,10.30
2022-10-05T02:28:46.568Z,10.10
2022-10-05T02:31:20.557Z,9.90
2022-10-05T02:33:54.642Z,9.70
2022-10-05T02:36:33.162Z,9.60
2022-10-05T02:39:10.775Z,9.40
2022-10-05T02:41:50.668Z,9.20
2022-10-05T02:44:32.384Z,9.10
2022-10-05T02:47:17.159Z,9.10
2022-10-05T02:50:38.525Z,9.00
2022-10-05T02:53:15.768Z,8.80
2022-10-05T02:56:02.951Z,8.70
2022-10-05T02:58:45.869Z,8.60
2022-10-05T03:01:23.767Z,8.50
2022-10-05T03:04:04.244Z,8.40
2022-10-05T03:06:54.133Z,8.40
2022-10-05T03:09:30.329Z,8.40
2022-10-05T03:12:18.928Z,8.40
2022-10-05T03:15:04.734Z,8.30
2022-10-05T03:17:48.148Z,8.30
2022-10-05T03:20:32.965Z,8.30
2022-10-05T03:23:09.635Z,8.30
2022-10-05T03:26:04.262Z,8.20
2022-10-05T03:28:49.240Z,8.20
2022-10-05T03:31:28.764Z,8.10
2022-10-05T03:34:09.560Z,8.10
2022-10-05T03:36:45.498Z,8.00
2022-10-05T03:39:24.433Z,8.00
2022-10-05T03:42:08.572Z,7.90
2022-10-05T03:44:53.860Z,7.90
2022-10-05T03:47:46.599Z,7.90
2022-10-05T03:50:34.292Z,7.90
2022-10-05T03:53:18.000Z,7.80
2022-10-05T03:55:52.123Z,7.80
2022-10-05T03:58:27.416Z,7.90
2022-10-05T04:01:05.252Z,8.10
2022-10-05T04:03:37.878Z,8.30
2022-10-05T04:06:17.011Z,8.40
2022-10-05T04:08:51.974Z,8.30
2022-10-05T04:11:29.218Z,8.20
2022-10-05T04:14:09.079Z,8.10
2022-10-05T04:16:45.682Z,8.10
2022-10-05T04:19:23.492Z,8.20
2022-10-05T04:22:05.915Z,8.10
2022-10-05T04:24:43.379Z,8.20
2022-10-05T04:27:20.148Z,8.20
2022-10-05T04:29:59.175Z,8.20
2022-10-05T04:32:39.903Z,8.20
2022-10-05T04:35:45.608Z,8.40
2022-10-05T04:38:38.888Z,8.40
2022-10-05T04:41:25.264Z,8.50
2022-10-05T04:44:13.388Z,8.50
2022-10-05T04:47:05.926Z,8.50
2022-10-05T04:50:02.971Z,8.50
2022-10-05T04:52:45.536Z,8.40
2022-10-05T04:55:23.433Z,8.30
2022-10-05T04:57:58.853Z,8.40
2022-10-05T05:00:33.193Z,8.40
2022-10-05T05:03:30.623Z,8.50
2022-10-05T05:06:17.477Z,8.50
2022-10-05T05:09:07.460Z,8.60
2022-10-05T05:12:04.128Z,8.60
2022-10-05T05:15:15.086Z,8.60
2022-10-05T05:17:56.848Z,8.60
2022-10-05T05:28:34.878Z,8.50
2022-10-05T05:31:57.459Z,8.50
2022-10-05T05:35:15.884Z,8.40
2022-10-05T05:38:02.878Z,8.40
2022-10-05T05:40:44.528Z,8.40
2022-10-05T05:43:38.320Z,8.30
2022-10-05T05:46:15.290Z,8.30
2022-10-05T06:14:44.268Z,8.70
2022-10-05T06:27:37.918Z,10.80
2022-10-05T06:30:11.743Z,12.10
2022-10-05T06:32:58.190Z,13.00
2022-10-05T06:35:55.613Z,13.60
2022-10-05T06:39:28.565Z,14.20
2022-10-05T06:42:39.618Z,14.50
2022-10-05T06:45:43.951Z,14.40
2022-10-05T06:49:03.784Z,13.70
2022-10-05T06:51:40.091Z,12.90
2022-10-05T06:54:24.211Z,12.40
2022-10-05T06:57:01.647Z,11.90
2022-10-05T06:59:40.652Z,11.70
2022-10-05T07:02:30.609Z,11.50
2022-10-05T07:05:43.616Z,11.40
2022-10-05T07:08:14.940Z,11.40
2022-10-05T07:10:52.480Z,11.30
2022-10-05T07:14:02.093Z,11.50
2022-10-05T07:16:42.795Z,11.70
2022-10-05T07:19:52.497Z,12.10
2022-10-05T07:33:35.653Z,13.00
2022-10-05T07:36:38.171Z,13.10
2022-10-05T07:39:20.188Z,13.20
2022-10-05T07:42:10.406Z,13.30
2022-10-05T07:45:13.681Z,13.40
2022-10-05T07:59:00.285Z,13.60
2022-10-05T08:01:56.227Z,13.70
2022-10-05T08:04:50.384Z,13.70
2022-10-05T08:07:51.162Z,13.80
2022-10-05T08:10:45.505Z,13.90
2022-10-05T08:13:22.344Z,14.00
2022-10-05T08:16:08.226Z,14.10
2022-10-05T08:18:56.233Z,14.20
2022-10-05T08:21:34.294Z,14.30
2022-10-05T08:24:14.424Z,14.40
2022-10-05T08:26:59.930Z,14.60
2022-10-05T08:29:43.625Z,14.80
2022-10-05T08:37:26.172Z,14.90
2022-10-05T10:23:47.522Z,18.40
2022-10-05T10:30:45.192Z,18.50
2022-10-05T10:33:53.096Z,18.60
2022-10-05T10:36:34.489Z,18.80
2022-10-05T10:39:09.144Z,19.10
2022-10-05T10:42:13.402Z,19.30
2022-10-05T10:45:00.543Z,19.40
2022-10-05T10:47:54.419Z,19.70
2022-10-05T10:50:49.900Z,19.80
2022-10-05T10:53:57.645Z,19.90
2022-10-05T10:56:47.804Z,19.90
2022-10-05T11:00:02.059Z,20.00
2022-10-05T11:02:55.990Z,20.10
2022-10-05T11:06:08.712Z,20.30
2022-10-05T11:09:09.647Z,20.40
2022-10-05T11:12:09.064Z,20.40
2022-10-05T11:15:00.013Z,20.60
2022-10-05T11:17:58.263Z,20.70
2022-10-05T11:21:05.594Z,20.90
2022-10-05T11:24:09.719Z,21.00
2022-10-05T11:27:10.988Z,20.90
2022-10-05T11:30:21.567Z,20.80
2022-10-05T11:33:30.539Z,20.70
2022-10-05T11:36:35.834Z,20.70
2022-10-05T11:39:30.334Z,20.70
2022-10-05T11:42:33.472Z,20.80
2022-10-05T11:45:24.097Z,20.70
2022-10-05T11:48:17.382Z,20.70
2022-10-05T11:50:58.545Z,20.70
2022-10-05T11:53:32.753Z,20.90
2022-10-05T11:56:09.609Z,21.00
2022-10-05T11:58:49.523Z,21.20
2022-10-05T12:01:27.250Z,21.40
2022-10-05T12:04:07.084Z,21.60
2022-10-05T12:07:02.855Z,21.70
2022-10-05T12:10:03.138Z,21.80
2022-10-05T12:12:37.799Z,21.80
2022-10-05T12:15:20.030Z,21.90
2022-10-05T12:17:52.192Z,21.90
2022-10-05T12:20:25.305Z,21.90
2022-10-05T12:22:59.017Z,22.00
2022-10-05T12:25:31.758Z,22.00
2022-10-05T12:28:04.999Z,21.90
2022-10-05T12:31:03.089Z,22.00
2022-10-05T12:33:38.675Z,22.00
2022-10-05T12:36:15.556Z,22.10
2022-10-05T12:38:50.004Z,22.10
2022-10-05T12:41:29.585Z,22.10
2022-10-05T12:44:11.426Z,22.10
2022-10-05T12:46:53.768Z,22.10
2022-10-05T12:49:56.852Z,22.10
2022-10-05T12:52:48.508Z,22.00
2022-10-05T12:55:26.107Z,22.00
2022-10-05T12:58:05.457Z,22.00
2022-10-05T13:00:37.101Z,22.00
2022-10-05T13:03:19.226Z,22.00
2022-10-05T13:05:56.938Z,22.00
2022-10-05T13:08:37.874Z,22.10
2022-10-05T13:11:15.183Z,22.10
2022-10-05T13:13:56.654Z,22.10
2022-10-05T13:16:33.356Z,22.20
2022-10-05T13:19:26.500Z,22.20
2022-10-05T13:22:17.379Z,22.20
2022-10-05T13:24:59.485Z,22.20
2022-10-05T13:27:32.967Z,22.20
2022-10-05T13:30:06.658Z,22.20
2022-10-05T13:32:42.218Z,22.30
2022-10-05T13:35:29.990Z,22.40
2022-10-05T13:38:18.233Z,22.40
2022-10-05T13:40:55.068Z,22.30
2022-10-05T13:46:12.993Z,22.30
2022-10-05T13:49:01.936Z,22.30
2022-10-05T13:51:40.961Z,22.20
2022-10-05T13:54:18.672Z,22.10
2022-10-05T13:56:54.851Z,22.10
2022-10-05T13:59:31.772Z,22.00
2022-10-05T14:02:03.302Z,21.90
2022-10-05T14:04:44.631Z,21.90
2022-10-05T14:07:28.598Z,22.00
2022-10-05T14:09:56.699Z,22.00
2022-10-05T14:12:25.402Z,22.00
2022-10-05T14:14:57.131Z,22.10
2022-10-05T14:17:46.143Z,22.10
2022-10-05T14:20:24.403Z,22.10
2022-10-05T14:23:00.853Z,22.10
2022-10-05T14:25:29.726Z,22.10
2022-10-05T14:28:04.775Z,22.10
2022-10-05T14:30:35.239Z,22.10
2022-10-05T14:33:17.090Z,22.00
2022-10-05T14:35:49.216Z,22.00
2022-10-05T14:38:25.712Z,22.00
2022-10-05T14:41:15.944Z,22.00
2022-10-05T14:43:54.493Z,22.00
2022-10-05T14:46:27.860Z,21.90
2022-10-05T14:49:21.020Z,21.80
2022-10-05T14:51:49.697Z,21.80
2022-10-05T14:54:28.585Z,21.70
2022-10-05T14:57:06.531Z,21.70
2022-10-05T15:00:00.384Z,21.60
2022-10-05T15:02:53.764Z,21.60
2022-10-05T15:05:31.327Z,21.60
2022-10-05T15:08:10.958Z,21.60
2022-10-05T15:10:44.111Z,21.60
2022-10-05T15:13:17.133Z,21.60
2022-10-05T15:15:52.077Z,21.60
2022-10-05T15:18:37.051Z,21.40
2022-10-05T15:21:24.143Z,21.40
2022-10-05T15:23:57.638Z,21.30
2022-10-05T15:26:41.871Z,21.30
2022-10-05T15:29:26.097Z,21.30
2022-10-05T15:32:03.847Z,21.20
2022-10-05T15:34:40.507Z,21.10
2022-10-05T15:37:19.633Z,21.00
2022-10-05T15:39:53.796Z,20.90
2022-10-05T15:42:34.942Z,20.90
2022-10-05T15:45:15.293Z,20.80
2022-10-05T15:47:52.238Z,20.80
2022-10-05T15:50:25.205Z,20.70
2022-10-05T15:53:02.569Z,20.70
2022-10-05T15:55:44.001Z,20.70
2022-10-05T15:58:39.815Z,20.60
2022-10-05T16:01:13.523Z,20.50
2022-10-05T16:03:51.085Z,20.40
2022-10-05T16:07:01.846Z,20.40
2022-10-05T16:09:43.715Z,20.30
2022-10-05T16:12:25.939Z,20.20
2022-10-05T16:15:15.397Z,20.20
2022-10-05T16:18:05.132Z,20.10
2022-10-05T16:20:45.285Z,20.00
2022-10-05T16:23:44.957Z,19.80
2022-10-05T16:54:24.485Z,18.70
2022-10-05T16:57:17.221Z,18.50
2022-10-05T17:00:12.172Z,18.40
2022-10-05T17:09:10.365Z,18.00
2022-10-05T17:10:48.641Z,17.80
2022-10-05T17:13:55.495Z,17.60
2022-10-05T17:16:37.930Z,17.50
2022-10-05T17:19:45.516Z,17.20
2022-10-05T17:22:32.381Z,16.90
2022-10-05T17:25:12.818Z,16.80
2022-10-05T17:28:11.259Z,16.50
2022-10-05T17:31:04.938Z,16.30
2022-10-05T17:34:04.214Z,16.10
2022-10-05T17:36:47.944Z,16.00
2022-10-05T17:39:38.261Z,15.90
2022-10-05T17:42:42.196Z,15.80
2022-10-05T17:45:39.986Z,15.80
2022-10-05T17:48:12.277Z,15.60
2022-10-05T17:51:00.176Z,15.60
2022-10-05T17:58:21.465Z,15.30
2022-10-05T18:13:17.100Z,15.20
2022-10-05T18:19:26.069Z,15.30
2022-10-05T18:37:47.867Z,16.30
2022-10-05T18:41:50.579Z,16.60
2022-10-05T19:19:01.257Z,16.80
2022-10-05T19:22:02.679Z,16.80
2022-10-05T19:28:19.641Z,16.90
2022-10-05T19:38:48.431Z,17.00
2022-10-05T19:45:30.420Z,16.90
2022-10-05T19:48:19.285Z,17.30
2022-10-05T19:51:34.816Z,17.30
2022-10-05T19:54:43.539Z,17.40
2022-10-05T19:58:36.218Z,17.50
2022-10-05T20:00:48.322Z,17.50
2022-10-05T20:03:27.733Z,17.50
2022-10-05T20:05:57.557Z,17.50
2022-10-05T20:08:42.702Z,17.40
2022-10-05T20:11:17.156Z,17.40
2022-10-05T20:13:46.669Z,17.40
2022-10-05T20:16:48.067Z,17.30
2022-10-05T20:20:08.077Z,17.30
2022-10-05T20:22:42.263Z,17.20
2022-10-05T20:25:32.840Z,17.10
2022-10-05T20:28:04.323Z,17.20
2022-10-05T20:30:36.560Z,17.20
2022-10-05T20:33:11.670Z,17.20
2022-10-05T20:35:39.926Z,17.20
2022-10-05T20:38:08.464Z,17.10
2022-10-05T20:40:41.384Z,17.20
2022-10-05T20:43:14.918Z,17.20
2022-10-05T20:45:54.684Z,17.10
2022-10-05T20:48:30.748Z,17.10
2022-10-05T20:51:00.280Z,16.90
2022-10-05T20:53:38.275Z,16.90
2022-10-05T20:56:06.684Z,16.80
2022-10-05T20:58:36.292Z,16.90
2022-10-05T21:01:18.516Z,16.80
2022-10-05T21:03:48.624Z,16.80
2022-10-05T21:06:19.229Z,16.60
2022-10-05T21:08:54.498Z,16.60
2022-10-05T21:11:22.699Z,16.50
2022-10-05T21:13:53.656Z,16.40
2022-10-05T21:16:23.057Z,16.40
2022-10-05T21:18:51.316Z,16.40
2022-10-05T21:21:19.624Z,16.40
2022-10-05T21:23:48.337Z,16.40
2022-10-05T21:26:16.973Z,16.30
2022-10-05T21:28:45.160Z,16.20
2022-10-05T21:31:18.838Z,16.20
2022-10-05T21:33:58.952Z,16.30
2022-10-05T21:36:27.124Z,16.40
2022-10-05T21:38:59.047Z,16.50
2022-10-05T21:41:27.671Z,16.50
2022-10-05T21:44:02.007Z,16.60
2022-10-05T21:46:31.615Z,16.70
2022-10-05T21:48:59.701Z,16.80
2022-10-05T21:51:28.382Z,16.80
2022-10-05T21:54:02.994Z,16.80
2022-10-05T21:56:36.022Z,16.80
2022-10-05T21:59:08.309Z,16.80
2022-10-05T22:01:40.415Z,16.70
2022-10-05T22:04:11.684Z,16.80
2022-10-05T22:06:40.323Z,16.70
2022-10-05T22:09:09.961Z,16.70
2022-10-05T22:11:40.505Z,16.70
2022-10-05T22:14:09.212Z,16.80
2022-10-05T22:16:43.555Z,16.70
2022-10-05T22:19:19.033Z,16.80
2022-10-05T22:21:47.281Z,16.70
2022-10-05T22:24:15.394Z,16.60
2022-10-05T22:26:47.817Z,16.70
2022-10-05T22:29:19.942Z,16.70
2022-10-05T22:31:49.729Z,16.70
2022-10-05T22:34:19.097Z,16.70
2022-10-05T22:36:51.315Z,16.80
2022-10-05T22:39:20.210Z,16.90
2022-10-05T22:41:48.760Z,16.80
2022-10-05T22:44:17.055Z,16.70
2022-10-05T22:46:45.281Z,16.70
2022-10-05T22:49:14.789Z,16.70
2022-10-05T22:51:43.124Z,16.70
2022-10-05T22:54:11.451Z,16.70
2022-10-05T22:56:39.730Z,16.70
2022-10-05T22:59:08.335Z,16.80
2022-10-05T23:01:45.454Z,16.70
2022-10-05T23:04:17.805Z,16.70
2022-10-05T23:06:46.167Z,16.70
2022-10-05T23:09:14.486Z,16.70
2022-10-05T23:11:47.140Z,16.70
2022-10-05T23:14:19.774Z,16.90
2022-10-05T23:16:50.101Z,16.90
2022-10-05T23:19:19.791Z,16.90
2022-10-05T23:21:59.236Z,16.80
2022-10-05T23:24:34.064Z,16.70
2022-10-05T23:27:02.611Z,16.70
2022-10-05T23:29:33.749Z,16.70
2022-10-05T23:32:05.137Z,16.70
2022-10-05T23:34:41.954Z,16.70
2022-10-05T23:37:12.337Z,16.60
2022-10-05T23:39:45.336Z,16.50
2022-10-05T23:42:18.865Z,16.60
2022-10-05T23:44:48.942Z,16.60
2022-10-05T23:47:18.605Z,16.50
2022-10-05T23:49:48.714Z,16.60
2022-10-05T23:52:24.814Z,16.60
2022-10-05T23:54:57.085Z,16.50
2022-10-05T23:57:44.520Z,16.50
